createdAt,value
2023-04-19T00:03:44.873Z,4.93
2023-04-19T00:08:48.224Z,5.18
2023-04-19T00:13:51.446Z,5.20
2023-04-19T00:18:56.049Z,4.75
2023-04-19T00:23:59.285Z,4.55
2023-04-19T00:29:02.555Z,4.40
2023-04-19T00:34:07.526Z,5.53
2023-04-19T00:39:10.765Z,6.05
2023-04-19T00:44:15.209Z,5.70
2023-04-19T00:49:21.333Z,4.70
2023-04-19T00:54:26.740Z,4.93
2023-04-19T00:59:30.313Z,6.93
2023-04-19T01:04:35.152Z,5.30
2023-04-19T01:09:42.379Z,7.53
2023-04-19T01:14:45.729Z,5.05
2023-04-19T01:19:50.266Z,6.00
2023-04-19T01:24:54.879Z,5.32
2023-04-19T01:29:58.323Z,6.00
2023-04-19T01:35:03.274Z,5.18
2023-04-19T01:40:09.366Z,5.35
2023-04-19T01:45:14.290Z,6.30
2023-04-19T01:50:17.562Z,5.60
2023-04-19T01:55:22.468Z,6.25
2023-04-19T02:00:26.089Z,5.50
2023-04-19T02:05:29.505Z,5.85
2023-04-19T02:10:34.962Z,6.13
2023-04-19T02:15:39.307Z,5.80
2023-04-19T02:20:42.754Z,7.18
2023-04-19T02:25:48.088Z,7.47
2023-04-19T02:30:51.604Z,5.55
2023-04-19T02:35:54.856Z,8.18
2023-04-19T02:41:00.825Z,6.88
2023-04-19T02:46:04.642Z,7.50
2023-04-19T02:51:08.010Z,6.93
2023-04-19T02:56:17.091Z,8.05
2023-04-19T03:01:21.035Z,7.28
2023-04-19T03:06:24.390Z,7.07
2023-04-19T03:11:29.051Z,6.72
2023-04-19T03:16:32.299Z,7.05
2023-04-19T03:21:35.683Z,10.40
2023-04-19T03:26:40.395Z,7.70
2023-04-19T03:31:44.030Z,6.88
2023-04-19T03:36:49.294Z,6.90
2023-04-19T03:41:54.165Z,7.80
2023-04-19T03:47:01.881Z,10.27
2023-04-19T03:52:10.125Z,7.30
2023-04-19T03:57:17.774Z,9.20
2023-04-19T04:02:21.271Z,8.10
2023-04-19T04:07:25.873Z,8.50
2023-04-19T04:12:31.860Z,9.00
2023-04-19T04:17:36.876Z,8.85
2023-04-19T04:22:43.993Z,10.20
2023-04-19T04:27:52.073Z,8.65
2023-04-19T04:32:59.122Z,7.40
2023-04-19T04:38:11.065Z,7.90
2023-04-19T04:43:19.050Z,7.97
2023-04-19T04:48:22.545Z,8.50
2023-04-19T04:53:27.645Z,7.50
2023-04-19T04:58:32.580Z,7.35
2023-04-19T05:03:41.631Z,8.27
2023-04-19T05:08:49.801Z,9.18
2023-04-19T05:14:14.037Z,8.10
2023-04-19T05:19:17.457Z,7.22
2023-04-19T05:24:27.604Z,8.88
2023-04-19T05:29:33.272Z,7.65
2023-04-19T05:34:37.920Z,9.38
2023-04-19T05:39:44.037Z,7.43
2023-04-19T05:44:49.150Z,9.15
2023-04-19T05:49:52.623Z,6.78
2023-04-19T05:55:07.118Z,6.88
2023-04-19T06:00:14.000Z,7.50
2023-04-19T06:05:19.251Z,9.02
2023-04-19T06:10:22.811Z,8.13
2023-04-19T06:15:27.450Z,8.40
2023-04-19T06:20:30.781Z,8.02
2023-04-19T06:25:34.538Z,9.02
2023-04-19T06:30:39.154Z,9.77
2023-04-19T06:35:42.312Z,7.78
2023-04-19T06:40:45.553Z,9.43
2023-04-19T06:45:50.192Z,9.55
2023-04-19T06:50:53.562Z,9.77
2023-04-19T06:55:59.342Z,8.35
2023-04-19T07:01:04.945Z,8.85
2023-04-19T07:06:08.661Z,8.05
2023-04-19T07:11:11.960Z,8.48
2023-04-19T07:16:16.725Z,9.10
2023-04-19T07:21:20.314Z,8.45
2023-04-19T07:26:23.509Z,8.98
2023-04-19T07:31:28.826Z,5.97
2023-04-19T07:36:32.099Z,7.85
2023-04-19T07:41:36.217Z,6.88
2023-04-19T07:46:44.788Z,5.80
2023-04-19T07:51:48.038Z,5.82
2023-04-19T07:56:51.364Z,5.90
2023-04-19T08:01:56.844Z,5.40
2023-04-19T08:07:00.147Z,3.95
2023-04-19T08:12:03.499Z,8.80
2023-04-19T08:17:23.289Z,4.18
2023-04-19T08:22:28.272Z,4.82
2023-04-19T08:27:31.546Z,5.65
2023-04-19T08:32:36.412Z,6.70
2023-04-19T08:37:39.686Z,5.10
2023-04-19T08:42:43.004Z,4.95
2023-04-19T08:47:58.764Z,4.32
2023-04-19T08:53:21.021Z,4.60
2023-04-19T08:58:45.818Z,4.88
2023-04-19T09:04:01.140Z,3.85
2023-04-19T09:09:33.450Z,3.78
2023-04-19T09:14:59.969Z,4.47
2023-04-19T09:20:08.523Z,5.30
2023-04-19T09:25:41.855Z,2.95
2023-04-19T09:31:02.340Z,2.80
2023-04-19T09:36:14.618Z,3.20
2023-04-19T09:41:18.496Z,2.67
2023-04-19T09:46:35.646Z,2.30
2023-04-19T09:51:43.701Z,3.03
2023-04-19T09:56:47.068Z,3.33
2023-04-19T10:01:57.308Z,3.30
2023-04-19T10:12:30.591Z,3.13
2023-04-19T10:17:32.552Z,2.72
2023-04-19T10:22:38.879Z,3.38
2023-04-19T10:27:48.933Z,2.92
2023-04-19T10:32:56.356Z,3.05
2023-04-19T10:38:09.561Z,3.15
2023-04-19T10:43:19.786Z,3.05
2023-04-19T10:48:56.089Z,3.25
2023-04-19T10:54:02.229Z,3.47
2023-04-19T10:59:22.190Z,3.00
2023-04-19T11:04:41.477Z,5.00
2023-04-19T11:09:48.897Z,3.45
2023-04-19T11:14:54.093Z,3.50
2023-04-19T11:19:58.834Z,4.38
2023-04-19T11:25:13.956Z,4.00
2023-04-19T11:30:20.195Z,4.55
2023-04-19T11:35:24.798Z,3.65
2023-04-19T11:40:29.764Z,2.85
2023-04-19T11:45:38.648Z,3.35
2023-04-19T11:50:44.346Z,2.75
2023-04-19T11:55:52.315Z,3.88
2023-04-19T12:00:55.818Z,2.72
2023-04-19T12:06:03.251Z,2.70
2023-04-19T12:11:08.392Z,2.35
2023-04-19T12:16:12.567Z,2.67
2023-04-19T12:21:27.472Z,3.15
2023-04-19T12:26:32.453Z,2.60
2023-04-19T12:31:36.438Z,3.05
2023-04-19T12:36:39.761Z,2.70
2023-04-19T12:41:44.694Z,2.45
2023-04-19T12:46:47.948Z,2.80
2023-04-19T12:51:51.365Z,3.03
2023-04-19T12:56:56.213Z,2.13
2023-04-19T13:01:59.890Z,2.53
2023-04-19T13:07:03.316Z,3.20
2023-04-19T13:12:08.744Z,2.90
2023-04-19T13:17:12.047Z,2.22
2023-04-19T13:22:15.552Z,3.05
2023-04-19T13:27:20.890Z,2.97
2023-04-19T13:32:24.254Z,3.92
2023-04-19T13:37:27.607Z,2.75
2023-04-19T13:42:32.321Z,2.45
2023-04-19T13:47:35.697Z,2.85
2023-04-19T13:52:39.138Z,3.00
2023-04-19T13:57:43.985Z,1.67
2023-04-19T14:02:48.396Z,2.40
2023-04-19T14:07:53.562Z,3.00
2023-04-19T14:12:58.606Z,2.55
2023-04-19T14:18:04.281Z,3.33
2023-04-19T14:23:07.605Z,1.75
2023-04-19T14:28:13.033Z,2.38
2023-04-19T14:33:16.286Z,1.95
2023-04-19T14:38:19.576Z,1.65
2023-04-19T14:43:24.181Z,2.05
2023-04-19T14:48:27.349Z,2.03
2023-04-19T14:53:32.362Z,2.38
2023-04-19T14:58:38.545Z,2.22
2023-04-19T15:03:42.321Z,2.17
2023-04-19T15:08:47.016Z,2.10
2023-04-19T15:13:51.697Z,2.08
2023-04-19T15:18:55.010Z,2.00
2023-04-19T15:23:58.709Z,1.92
2023-04-19T15:29:03.314Z,2.45
2023-04-19T15:34:06.641Z,2.70
2023-04-19T15:39:10.035Z,1.77
2023-04-19T15:44:14.706Z,1.70
2023-04-19T15:49:18.470Z,1.80
2023-04-19T15:54:23.156Z,1.75
2023-04-19T15:59:27.720Z,1.85
2023-04-19T16:04:32.211Z,1.75
2023-04-19T16:09:35.545Z,1.40
2023-04-19T16:14:40.188Z,1.88
2023-04-19T16:19:43.452Z,2.20
2023-04-19T16:24:46.971Z,2.95
2023-04-19T16:29:51.750Z,1.88
2023-04-19T16:34:55.040Z,1.63
2023-04-19T16:39:58.288Z,4.40
2023-04-19T16:45:03.288Z,1.60
2023-04-19T16:50:07.660Z,1.95
2023-04-19T16:55:11.827Z,1.60
2023-04-19T17:00:18.077Z,2.15
2023-04-19T17:05:21.470Z,2.08
2023-04-19T17:10:25.531Z,2.70
2023-04-19T17:15:30.529Z,3.40
2023-04-19T17:20:34.093Z,1.88
2023-04-19T17:25:37.577Z,2.20
2023-04-19T17:30:42.840Z,1.77
2023-04-19T17:35:46.380Z,2.15
2023-04-19T17:40:50.622Z,2.80
2023-04-19T17:45:55.705Z,2.33
2023-04-19T17:50:59.113Z,2.83
2023-04-19T17:56:03.465Z,3.42
2023-04-19T18:01:13.953Z,2.92
2023-04-19T18:06:19.090Z,2.63
2023-04-19T18:11:26.923Z,3.35
2023-04-19T18:16:35.777Z,2.83
2023-04-19T18:21:40.260Z,3.85
2023-04-19T18:26:46.130Z,3.75
2023-04-19T18:31:56.318Z,2.30
2023-04-19T18:37:03.156Z,2.75
2023-04-19T18:42:08.064Z,3.55
2023-04-19T18:47:14.779Z,2.30
2023-04-19T18:52:20.575Z,2.60
2023-04-19T18:57:27.401Z,3.13
2023-04-19T19:02:35.252Z,2.78
2023-04-19T19:07:40.578Z,3.42
2023-04-19T19:12:46.193Z,2.28
2023-04-19T19:17:52.245Z,3.50
2023-04-19T19:22:58.158Z,2.45
2023-04-19T19:28:09.054Z,2.17
2023-04-19T19:33:17.047Z,2.72
2023-04-19T19:38:21.797Z,2.50
2023-04-19T19:43:26.200Z,2.55
2023-04-19T19:48:40.835Z,2.40
2023-04-19T19:53:48.166Z,3.30
2023-04-19T19:58:53.809Z,3.45
2023-04-19T20:04:01.722Z,3.40
2023-04-19T20:09:05.937Z,2.67
2023-04-19T20:14:11.098Z,1.95
2023-04-19T20:19:17.495Z,2.83
2023-04-19T20:24:22.230Z,2.92
2023-04-19T20:29:27.771Z,2.58
2023-04-19T20:34:34.646Z,2.67
2023-04-19T20:39:39.770Z,2.63
2023-04-19T20:44:44.161Z,2.30
2023-04-19T20:49:51.511Z,2.45
2023-04-19T20:54:56.700Z,2.97
2023-04-19T21:00:00.893Z,2.40
2023-04-19T21:05:06.232Z,2.75
2023-04-19T21:10:11.430Z,2.72
2023-04-19T21:15:15.951Z,3.63
2023-04-19T21:20:22.205Z,2.50
2023-04-19T21:25:25.471Z,2.38
2023-04-19T21:30:28.775Z,2.40
2023-04-19T21:35:33.413Z,2.28
2023-04-19T21:40:36.886Z,2.45
2023-04-19T21:45:40.212Z,4.00
2023-04-19T21:50:44.841Z,3.55
2023-04-19T21:55:50.070Z,2.65
2023-04-19T22:00:54.606Z,2.58
2023-04-19T22:06:02.220Z,2.30
2023-04-19T22:11:06.028Z,3.25
2023-04-19T22:16:09.481Z,2.50
2023-04-19T22:21:14.905Z,2.58
2023-04-19T22:26:18.210Z,2.45
2023-04-19T22:31:21.427Z,5.22
2023-04-19T22:36:26.334Z,2.47
2023-04-19T22:41:29.542Z,2.90
2023-04-19T22:46:33.395Z,2.58
2023-04-19T22:51:38.431Z,3.78
2023-04-19T22:56:41.689Z,3.55
2023-04-19T23:01:45.055Z,3.83
2023-04-19T23:06:49.707Z,2.78
2023-04-19T23:11:54.880Z,2.80
2023-04-19T23:16:59.166Z,3.80
2023-04-19T23:22:03.776Z,4.32
2023-04-19T23:27:07.063Z,3.40
2023-04-19T23:32:10.240Z,4.15
2023-04-19T23:37:14.977Z,3.10
2023-04-19T23:42:18.281Z,3.25
2023-04-19T23:47:21.740Z,4.07
2023-04-19T23:52:27.564Z,2.50
2023-04-19T23:57:30.938Z,3.97
